createdAt,value
2019-04-18T00:00:10.225Z,1019.90
2019-04-18T00:01:10.206Z,1019.89
2019-04-18T00:02:12.754Z,1019.89
2019-04-18T00:03:15.508Z,1019.88
2019-04-18T00:04:10.140Z,1019.84
2019-04-18T00:05:10.130Z,1019.86
2019-04-18T00:06:10.103Z,1019.86
2019-04-18T00:07:10.086Z,1019.83
2019-04-18T00:08:10.071Z,1019.84
2019-04-18T00:09:10.050Z,1019.82
2019-04-18T00:10:10.025Z,1019.81
2019-04-18T00:11:10.005Z,1019.84
2019-04-18T00:12:10.002Z,1019.79
2019-04-18T00:13:09.973Z,1019.77
2019-04-18T00:14:09.946Z,1019.82
2019-04-18T00:15:09.935Z,1019.74
2019-04-18T00:16:10.604Z,1019.78
2019-04-18T00:17:09.898Z,1019.82
2019-04-18T00:18:09.869Z,1019.77
2019-04-18T00:19:13.148Z,1019.75
2019-04-18T00:20:09.829Z,1019.75
2019-04-18T00:21:09.810Z,1019.74
2019-04-18T00:22:09.799Z,1019.75
2019-04-18T00:23:09.771Z,1019.76
2019-04-18T00:24:09.754Z,1019.70
2019-04-18T00:25:09.732Z,1019.70
2019-04-18T00:26:12.567Z,1019.68
2019-04-18T00:27:09.694Z,1019.69
2019-04-18T00:28:09.689Z,1019.71
2019-04-18T00:29:09.654Z,1019.71
2019-04-18T00:30:09.642Z,1019.71
2019-04-18T00:31:09.616Z,1019.70
2019-04-18T00:32:13.261Z,1019.71
2019-04-18T00:33:09.580Z,1019.71
2019-04-18T00:34:15.463Z,1019.69
2019-04-18T00:35:11.217Z,1019.66
2019-04-18T00:36:11.574Z,1019.68
2019-04-18T00:37:09.512Z,1019.65
2019-04-18T00:38:09.494Z,1019.67
2019-04-18T00:39:09.462Z,1019.68
2019-04-18T00:40:12.201Z,1019.67
2019-04-18T00:41:09.657Z,1019.65
2019-04-18T00:42:09.403Z,1019.70
2019-04-18T00:43:09.381Z,1019.66
2019-04-18T00:44:09.378Z,1019.70
2019-04-18T00:45:12.381Z,1019.67
2019-04-18T00:46:09.325Z,1019.65
2019-04-18T00:47:09.322Z,1019.66
2019-04-18T00:48:09.283Z,1019.68
2019-04-18T00:49:09.267Z,1019.66
2019-04-18T00:50:09.260Z,1019.65
2019-04-18T00:51:09.234Z,1019.66
2019-04-18T00:52:09.205Z,1019.69
2019-04-18T00:53:09.551Z,1019.69
2019-04-18T00:54:09.510Z,1019.67
2019-04-18T00:55:09.479Z,1019.70
2019-04-18T00:56:09.520Z,1019.72
2019-04-18T00:57:13.540Z,1019.71
2019-04-18T00:58:09.096Z,1019.70
2019-04-18T00:59:09.070Z,1019.67
2019-04-18T01:00:12.728Z,1019.71
2019-04-18T01:01:12.861Z,1019.69
2019-04-18T01:02:09.029Z,1019.70
2019-04-18T01:03:08.993Z,1019.72
2019-04-18T01:04:08.992Z,1019.71
2019-04-18T01:05:10.806Z,1019.68
2019-04-18T01:06:12.086Z,1019.71
2019-04-18T01:07:09.132Z,1019.71
2019-04-18T01:08:08.904Z,1019.72
2019-04-18T01:09:08.872Z,1019.75
2019-04-18T01:10:08.854Z,1019.71
2019-04-18T01:11:08.834Z,1019.72
2019-04-18T01:12:08.829Z,1019.79
2019-04-18T01:13:10.725Z,1019.78
2019-04-18T01:14:09.325Z,1019.81
2019-04-18T01:15:09.236Z,1019.74
2019-04-18T01:16:08.749Z,1019.73
2019-04-18T01:17:11.511Z,1019.76
2019-04-18T01:18:12.686Z,1019.75
2019-04-18T01:19:08.685Z,1019.74
2019-04-18T01:20:08.659Z,1019.74
2019-04-18T01:21:08.637Z,1019.73
2019-04-18T01:22:15.052Z,1019.81
2019-04-18T01:23:08.600Z,1019.75
2019-04-18T01:24:08.732Z,1019.81
2019-04-18T01:25:08.669Z,1019.79
2019-04-18T01:26:12.217Z,1019.78
2019-04-18T01:27:08.537Z,1019.79
2019-04-18T01:28:08.500Z,1019.82
2019-04-18T01:29:08.843Z,1019.81
2019-04-18T01:30:08.871Z,1019.82
2019-04-18T01:31:08.717Z,1019.82
2019-04-18T01:32:08.722Z,1019.80
2019-04-18T01:33:10.753Z,1019.79
2019-04-18T01:34:13.035Z,1019.85
2019-04-18T01:35:08.373Z,1019.83
2019-04-18T01:36:08.972Z,1019.84
2019-04-18T01:37:08.339Z,1019.84
2019-04-18T01:38:10.615Z,1019.86
2019-04-18T01:39:14.312Z,1019.89
2019-04-18T01:40:08.277Z,1019.84
2019-04-18T01:41:08.243Z,1019.91
2019-04-18T01:42:08.226Z,1019.85
2019-04-18T01:43:08.203Z,1019.90
2019-04-18T01:44:12.652Z,1019.89
2019-04-18T01:45:08.272Z,1019.87
2019-04-18T01:46:08.151Z,1019.85
2019-04-18T01:47:08.123Z,1019.84
2019-04-18T01:48:08.105Z,1019.86
2019-04-18T01:49:10.934Z,1019.88
2019-04-18T01:50:08.484Z,1019.87
2019-04-18T01:51:08.329Z,1019.88
2019-04-18T01:52:08.076Z,1019.90
2019-04-18T01:53:08.005Z,1019.91
2019-04-18T01:54:10.805Z,1019.89
2019-04-18T01:55:08.354Z,1019.92
2019-04-18T01:56:08.513Z,1019.92
2019-04-18T01:57:08.028Z,1019.91
2019-04-18T01:58:07.906Z,1019.95
2019-04-18T01:59:09.675Z,1019.92
2019-04-18T02:00:10.220Z,1019.93
2019-04-18T02:01:07.845Z,1019.92
2019-04-18T02:02:07.826Z,1019.95
2019-04-18T02:03:07.819Z,1019.95
2019-04-18T02:04:09.909Z,1019.97
2019-04-18T02:05:07.946Z,1019.94
2019-04-18T02:06:10.050Z,1019.96
2019-04-18T02:07:07.787Z,1019.96
2019-04-18T02:08:07.707Z,1019.94
2019-04-18T02:09:07.687Z,1019.95
2019-04-18T02:10:07.795Z,1019.96
2019-04-18T02:11:08.180Z,1020.01
2019-04-18T02:12:11.669Z,1019.96
2019-04-18T02:13:07.605Z,1019.99
2019-04-18T02:14:07.882Z,1020.00
2019-04-18T02:15:07.878Z,1020.03
2019-04-18T02:16:11.227Z,1020.01
2019-04-18T02:17:07.531Z,1020.04
2019-04-18T02:18:07.506Z,1020.05
2019-04-18T02:19:08.015Z,1020.08
2019-04-18T02:20:08.068Z,1020.05
2019-04-18T02:21:10.238Z,1020.09
2019-04-18T02:22:09.658Z,1020.11
2019-04-18T02:23:07.407Z,1020.10
2019-04-18T02:24:07.816Z,1020.11
2019-04-18T02:25:07.834Z,1020.12
2019-04-18T02:26:07.818Z,1020.19
2019-04-18T02:27:07.328Z,1020.17
2019-04-18T02:28:07.308Z,1020.15
2019-04-18T02:29:09.578Z,1020.19
2019-04-18T02:30:07.274Z,1020.16
2019-04-18T02:31:07.254Z,1020.12
2019-04-18T02:32:07.227Z,1020.16
2019-04-18T02:33:12.269Z,1020.16
2019-04-18T02:34:07.277Z,1020.15
2019-04-18T02:35:20.019Z,1020.18
2019-04-18T02:36:07.147Z,1020.15
2019-04-18T02:37:11.060Z,1020.20
2019-04-18T02:38:07.440Z,1020.18
2019-04-18T02:39:07.173Z,1020.19
2019-04-18T02:40:07.066Z,1020.16
2019-04-18T02:41:09.973Z,1020.21
2019-04-18T02:42:07.230Z,1020.23
2019-04-18T02:43:07.291Z,1020.22
2019-04-18T02:44:06.985Z,1020.23
2019-04-18T02:45:06.965Z,1020.23
2019-04-18T02:46:10.500Z,1020.26
2019-04-18T02:47:07.166Z,1020.21
2019-04-18T02:48:07.470Z,1020.25
2019-04-18T02:49:06.885Z,1020.24
2019-04-18T02:50:09.847Z,1020.23
2019-04-18T02:51:06.844Z,1020.25
2019-04-18T02:52:06.830Z,1020.21
2019-04-18T02:53:06.805Z,1020.17
2019-04-18T02:54:09.957Z,1020.19
2019-04-18T02:55:06.816Z,1020.21
2019-04-18T02:56:06.748Z,1020.19
2019-04-18T02:57:06.732Z,1020.22
2019-04-18T02:58:09.031Z,1020.19
2019-04-18T02:59:06.926Z,1020.21
2019-04-18T03:00:06.661Z,1020.22
2019-04-18T03:01:06.801Z,1020.20
2019-04-18T03:02:07.088Z,1020.17
2019-04-18T03:03:10.662Z,1020.21
2019-04-18T03:04:06.757Z,1020.19
2019-04-18T03:05:06.568Z,1020.20
2019-04-18T03:06:09.038Z,1020.19
2019-04-18T03:07:06.520Z,1020.18
2019-04-18T03:08:06.498Z,1020.16
2019-04-18T03:09:06.476Z,1020.12
2019-04-18T03:10:09.285Z,1020.18
2019-04-18T03:11:06.444Z,1020.24
2019-04-18T03:12:06.421Z,1020.20
2019-04-18T03:13:06.395Z,1020.24
2019-04-18T03:14:09.631Z,1020.20
2019-04-18T03:15:06.354Z,1020.19
2019-04-18T03:16:08.783Z,1020.22
2019-04-18T03:17:06.363Z,1020.20
2019-04-18T03:18:06.296Z,1020.20
2019-04-18T03:19:10.164Z,1020.21
2019-04-18T03:20:06.262Z,1020.23
2019-04-18T03:21:06.625Z,1020.21
2019-04-18T03:22:06.211Z,1020.24
2019-04-18T03:23:08.409Z,1020.23
2019-04-18T03:24:09.456Z,1020.21
2019-04-18T03:25:06.816Z,1020.21
2019-04-18T03:26:06.128Z,1020.25
2019-04-18T03:27:06.115Z,1020.23
2019-04-18T03:28:11.024Z,1020.22
2019-04-18T03:29:06.066Z,1020.21
2019-04-18T03:30:06.047Z,1020.22
2019-04-18T03:31:19.580Z,1020.23
2019-04-18T03:32:06.053Z,1020.20
2019-04-18T03:33:15.879Z,1020.24
2019-04-18T03:34:10.605Z,1020.21
2019-04-18T03:35:05.943Z,1020.27
2019-04-18T03:36:05.920Z,1020.23
2019-04-18T03:37:06.952Z,1020.27
2019-04-18T03:38:07.530Z,1020.25
2019-04-18T03:39:05.869Z,1020.23
2019-04-18T03:40:05.837Z,1020.27
2019-04-18T03:41:06.038Z,1020.25
2019-04-18T03:42:06.228Z,1020.28
2019-04-18T03:45:23.893Z,1020.32
2019-04-18T03:46:25.528Z,1020.28
2019-04-18T03:47:27.093Z,1020.25
2019-04-18T03:48:23.828Z,1020.29
2019-04-18T03:49:23.817Z,1020.27
2019-04-18T03:50:23.794Z,1020.27
2019-04-18T03:51:24.843Z,1020.31
2019-04-18T03:52:24.892Z,1020.31
2019-04-18T03:53:23.728Z,1020.27
2019-04-18T03:54:23.711Z,1020.28
2019-04-18T03:55:23.690Z,1020.29
2019-04-18T03:56:25.875Z,1020.25
2019-04-18T03:57:23.652Z,1020.24
2019-04-18T03:58:23.622Z,1020.29
2019-04-18T03:59:23.599Z,1020.28
2019-04-18T04:00:25.180Z,1020.32
2019-04-18T04:01:23.605Z,1020.33
2019-04-18T04:02:23.550Z,1020.30
2019-04-18T04:03:23.526Z,1020.34
2019-04-18T04:04:23.795Z,1020.28
2019-04-18T04:05:24.144Z,1020.29
2019-04-18T04:06:23.456Z,1020.31
2019-04-18T04:07:25.750Z,1020.32
2019-04-18T04:08:23.411Z,1020.35
2019-04-18T04:09:23.392Z,1020.35
2019-04-18T04:10:23.372Z,1020.35
2019-04-18T04:11:24.032Z,1020.33
2019-04-18T04:12:23.785Z,1020.36
2019-04-18T04:13:23.310Z,1020.36
2019-04-18T04:14:23.296Z,1020.36
2019-04-18T04:15:23.266Z,1020.40
2019-04-18T04:16:24.000Z,1020.43
2019-04-18T04:17:28.881Z,1020.47
2019-04-18T04:18:23.204Z,1020.42
2019-04-18T04:19:23.186Z,1020.44
2019-04-18T04:20:25.997Z,1020.46
2019-04-18T04:21:23.141Z,1020.49
2019-04-18T04:22:23.120Z,1020.48
2019-04-18T04:23:23.108Z,1020.53
2019-04-18T04:24:23.082Z,1020.57
2019-04-18T04:25:23.058Z,1020.52
2019-04-18T04:26:23.038Z,1020.53
2019-04-18T04:27:23.021Z,1020.59
2019-04-18T04:28:23.923Z,1020.58
2019-04-18T04:29:22.976Z,1020.58
2019-04-18T04:30:22.954Z,1020.57
2019-04-18T04:31:23.442Z,1020.60
2019-04-18T04:32:28.278Z,1020.61
2019-04-18T04:33:22.892Z,1020.65
2019-04-18T04:34:22.869Z,1020.60
2019-04-18T04:35:22.847Z,1020.65
2019-04-18T04:36:26.310Z,1020.67
2019-04-18T04:37:37.269Z,1020.65
2019-04-18T04:38:22.788Z,1020.63
2019-04-18T04:39:24.206Z,1020.68
2019-04-18T04:40:22.785Z,1020.66
2019-04-18T04:41:22.724Z,1020.65
2019-04-18T04:42:22.710Z,1020.69
2019-04-18T04:43:22.691Z,1020.66
2019-04-18T04:44:26.746Z,1020.67
2019-04-18T04:45:22.647Z,1020.69
2019-04-18T04:46:22.620Z,1020.71
2019-04-18T04:47:22.598Z,1020.75
2019-04-18T04:48:24.974Z,1020.70
2019-04-18T04:49:22.556Z,1020.75
2019-04-18T04:50:22.538Z,1020.74
2019-04-18T04:51:22.513Z,1020.72
2019-04-18T04:52:22.822Z,1020.76
2019-04-18T04:53:22.472Z,1020.75
2019-04-18T04:54:22.453Z,1020.79
2019-04-18T04:55:22.433Z,1020.80
2019-04-18T04:56:22.409Z,1020.82
2019-04-18T04:57:24.819Z,1020.80
2019-04-18T04:58:22.370Z,1020.80
2019-04-18T04:59:22.354Z,1020.85
2019-04-18T05:00:24.343Z,1020.86
2019-04-18T05:01:22.316Z,1020.86
2019-04-18T05:02:22.283Z,1020.86
2019-04-18T05:03:22.264Z,1020.84
2019-04-18T05:04:22.458Z,1020.85
2019-04-18T05:05:24.887Z,1020.87
2019-04-18T05:06:35.611Z,1020.90
2019-04-18T05:07:22.187Z,1020.91
2019-04-18T05:08:22.159Z,1020.91
2019-04-18T05:09:22.138Z,1020.89
2019-04-18T05:10:22.115Z,1020.90
2019-04-18T05:11:22.910Z,1020.87
2019-04-18T05:12:24.032Z,1020.86
2019-04-18T05:13:22.051Z,1020.92
2019-04-18T05:14:22.033Z,1020.90
2019-04-18T05:15:22.020Z,1020.88
2019-04-18T05:16:21.989Z,1020.93
2019-04-18T05:17:21.969Z,1020.93
2019-04-18T05:18:21.956Z,1020.92
2019-04-18T05:19:21.927Z,1020.92
2019-04-18T05:20:21.906Z,1020.90
2019-04-18T05:21:21.885Z,1020.93
2019-04-18T05:22:21.867Z,1020.96
2019-04-18T05:23:21.843Z,1020.89
2019-04-18T05:24:25.213Z,1020.94
2019-04-18T05:25:21.800Z,1020.95
2019-04-18T05:26:21.787Z,1020.98
2019-04-18T05:27:21.761Z,1020.96
2019-04-18T05:28:21.737Z,1021.01
2019-04-18T05:29:21.721Z,1021.00
2019-04-18T05:30:21.703Z,1021.03
2019-04-18T05:31:22.024Z,1021.05
2019-04-18T05:32:21.671Z,1021.04
2019-04-18T05:33:21.640Z,1021.05
2019-04-18T05:34:21.612Z,1021.05
2019-04-18T05:35:23.844Z,1021.06
2019-04-18T05:36:22.916Z,1021.06
2019-04-18T05:37:21.551Z,1021.05
2019-04-18T05:38:23.619Z,1021.18
2019-04-18T05:39:21.521Z,1021.08
2019-04-18T05:40:23.545Z,1021.12
2019-04-18T05:41:23.042Z,1021.25
2019-04-18T05:42:22.904Z,1021.50
2019-04-18T05:43:25.661Z,1021.55
2019-04-18T05:44:21.478Z,1021.66
2019-04-18T05:45:24.723Z,1021.64
2019-04-18T05:46:22.128Z,1021.68
2019-04-18T05:47:21.342Z,1021.55
2019-04-18T05:48:21.323Z,1021.56
2019-04-18T05:49:21.307Z,1021.69
2019-04-18T05:50:21.302Z,1021.78
2019-04-18T05:51:21.762Z,1021.76
2019-04-18T05:52:23.100Z,1021.79
2019-04-18T05:53:21.238Z,1021.83
2019-04-18T05:54:21.223Z,1021.84
2019-04-18T05:55:22.087Z,1021.92
2019-04-18T05:56:21.182Z,1021.91
2019-04-18T05:57:21.162Z,1021.92
2019-04-18T05:58:21.137Z,1021.91
2019-04-18T05:59:22.246Z,1021.90
2019-04-18T06:00:24.376Z,1021.78
2019-04-18T06:01:21.083Z,1021.71
2019-04-18T06:02:23.738Z,1021.79
2019-04-18T06:06:15.496Z,1021.77
2019-04-18T06:07:15.352Z,1021.70
2019-04-18T06:08:13.654Z,1021.79
2019-04-18T06:09:10.612Z,1021.95
2019-04-18T06:10:13.907Z,1021.73
2019-04-18T06:11:10.580Z,1021.84
2019-04-18T06:12:12.066Z,1021.78
2019-04-18T06:13:10.553Z,1022.01
2019-04-18T06:14:10.535Z,1021.73
2019-04-18T06:15:12.381Z,1021.71
2019-04-18T06:16:10.520Z,1021.82
2019-04-18T06:17:10.482Z,1022.13
2019-04-18T06:18:11.232Z,1022.07
2019-04-18T06:19:12.962Z,1021.91
2019-04-18T06:20:10.434Z,1022.00
2019-04-18T06:21:10.764Z,1022.03
2019-04-18T06:22:14.130Z,1021.91
2019-04-18T06:23:10.859Z,1021.96
2019-04-18T06:24:10.371Z,1021.99
2019-04-18T06:25:12.986Z,1022.06
2019-04-18T06:26:10.522Z,1022.05
2019-04-18T06:27:10.324Z,1022.12
2019-04-18T06:28:11.095Z,1022.14
2019-04-18T06:29:10.434Z,1022.19
2019-04-18T06:30:10.280Z,1022.26
2019-04-18T06:31:13.181Z,1022.29
2019-04-18T06:32:10.260Z,1022.18
2019-04-18T06:33:10.253Z,1022.31
2019-04-18T06:34:12.320Z,1021.94
2019-04-18T06:35:14.650Z,1022.31
2019-04-18T06:36:10.197Z,1021.95
2019-04-18T06:37:10.899Z,1021.88
2019-04-18T06:38:13.513Z,1021.90
2019-04-18T06:39:10.156Z,1021.88
2019-04-18T06:40:10.142Z,1021.92
2019-04-18T06:41:10.181Z,1021.90
2019-04-18T06:42:13.691Z,1022.20
2019-04-18T06:43:10.570Z,1021.99
2019-04-18T06:44:10.094Z,1022.01
2019-04-18T06:45:10.757Z,1022.12
2019-04-18T06:46:11.068Z,1021.77
2019-04-18T06:47:10.040Z,1021.89
2019-04-18T06:48:10.193Z,1021.77
2019-04-18T06:49:12.711Z,1021.76
2019-04-18T06:50:10.318Z,1021.71
2019-04-18T06:51:09.982Z,1021.72
2019-04-18T06:52:10.204Z,1021.71
2019-04-18T06:53:13.603Z,1021.67
2019-04-18T06:54:09.949Z,1021.69
2019-04-18T06:55:10.393Z,1021.68
2019-04-18T06:56:14.884Z,1021.69
2019-04-18T06:57:09.900Z,1021.67
2019-04-18T06:58:09.883Z,1021.68
2019-04-18T06:59:09.867Z,1021.66
2019-04-18T07:00:11.276Z,1021.65
2019-04-18T07:01:09.835Z,1021.64
2019-04-18T07:02:12.638Z,1021.62
2019-04-18T07:03:09.803Z,1021.63
2019-04-18T07:04:09.778Z,1021.65
2019-04-18T07:05:09.763Z,1021.64
2019-04-18T07:06:11.895Z,1021.70
2019-04-18T07:07:12.855Z,1021.84
2019-04-18T07:08:09.723Z,1021.84
2019-04-18T07:09:09.822Z,1021.96
2019-04-18T07:10:12.853Z,1022.12
2019-04-18T07:11:09.661Z,1022.08
2019-04-18T07:12:11.578Z,1022.02
2019-04-18T07:13:09.641Z,1021.95
2019-04-18T07:14:10.175Z,1021.92
2019-04-18T07:15:09.597Z,1022.00
2019-04-18T07:16:12.084Z,1022.06
2019-04-18T07:17:10.501Z,1021.98
2019-04-18T07:18:09.544Z,1021.83
2019-04-18T07:19:09.544Z,1021.87
2019-04-18T07:20:16.135Z,1021.85
2019-04-18T07:21:09.620Z,1021.83
2019-04-18T07:22:09.654Z,1021.86
2019-04-18T07:23:09.464Z,1021.94
2019-04-18T07:24:09.451Z,1021.92
2019-04-18T07:25:09.432Z,1021.98
2019-04-18T07:26:09.718Z,1021.97
2019-04-18T07:27:09.417Z,1021.95
2019-04-18T07:28:09.385Z,1021.98
2019-04-18T07:29:09.829Z,1021.90
2019-04-18T07:30:09.464Z,1022.00
2019-04-18T07:31:09.340Z,1022.00
2019-04-18T07:32:09.634Z,1022.05
2019-04-18T07:33:09.321Z,1022.10
2019-04-18T07:34:09.724Z,1022.22
2019-04-18T07:35:09.278Z,1022.21
2019-04-18T07:36:09.272Z,1022.08
2019-04-18T07:37:14.890Z,1021.96
2019-04-18T07:38:09.235Z,1021.95
2019-04-18T07:39:09.217Z,1021.99
2019-04-18T07:40:10.977Z,1021.99
2019-04-18T07:41:09.321Z,1021.96
2019-04-18T07:42:09.173Z,1022.01
2019-04-18T07:43:09.344Z,1022.04
2019-04-18T07:44:09.378Z,1022.02
2019-04-18T07:45:09.351Z,1022.03
2019-04-18T07:46:09.120Z,1022.07
2019-04-18T07:47:09.460Z,1022.19
2019-04-18T07:48:09.091Z,1022.26
2019-04-18T07:49:09.608Z,1022.30
2019-04-18T07:50:09.639Z,1022.25
2019-04-18T07:51:09.040Z,1022.23
2019-04-18T07:52:09.023Z,1022.15
2019-04-18T07:53:09.012Z,1022.14
2019-04-18T07:54:09.099Z,1022.05
2019-04-18T07:55:08.989Z,1022.07
2019-04-18T07:56:09.444Z,1022.06
2019-04-18T07:57:12.352Z,1022.04
2019-04-18T07:58:09.434Z,1022.06
2019-04-18T07:59:14.900Z,1022.07
2019-04-18T08:00:09.487Z,1022.06
2019-04-18T08:01:08.904Z,1022.07
2019-04-18T08:02:09.912Z,1022.11
2019-04-18T08:03:11.247Z,1022.09
2019-04-18T08:04:15.181Z,1022.04
2019-04-18T08:05:09.480Z,1022.04
2019-04-18T08:06:10.995Z,1022.12
2019-04-18T08:07:09.049Z,1022.15
2019-04-18T08:08:08.803Z,1022.20
2019-04-18T08:09:08.809Z,1022.20
2019-04-18T08:10:20.587Z,1022.26
2019-04-18T08:11:08.762Z,1022.49
2019-04-18T08:12:08.747Z,1022.39
2019-04-18T08:13:08.749Z,1022.42
2019-04-18T08:14:09.277Z,1022.40
2019-04-18T08:15:08.707Z,1022.35
2019-04-18T08:16:08.811Z,1022.28
2019-04-18T08:17:12.793Z,1022.14
2019-04-18T08:18:08.662Z,1022.20
2019-04-18T08:19:09.186Z,1022.15
2019-04-18T08:20:08.637Z,1022.21
2019-04-18T08:21:08.637Z,1022.12
2019-04-18T08:22:08.611Z,1022.17
2019-04-18T08:23:19.776Z,1022.20
2019-04-18T08:24:10.302Z,1022.26
2019-04-18T08:25:08.617Z,1022.32
2019-04-18T08:26:08.818Z,1022.29
2019-04-18T08:27:08.660Z,1022.42
2019-04-18T08:28:12.611Z,1022.29
2019-04-18T08:29:21.838Z,1022.26
2019-04-18T08:30:08.719Z,1022.33
2019-04-18T08:31:08.955Z,1022.23
2019-04-18T08:32:10.853Z,1022.24
2019-04-18T08:33:08.464Z,1022.27
2019-04-18T08:34:08.461Z,1022.25
2019-04-18T08:35:08.852Z,1022.20
2019-04-18T08:36:08.426Z,1022.19
2019-04-18T08:37:08.407Z,1022.22
2019-04-18T08:38:08.705Z,1022.15
2019-04-18T08:39:10.162Z,1022.19
2019-04-18T08:40:08.366Z,1022.24
2019-04-18T08:41:08.979Z,1022.19
2019-04-18T08:42:09.029Z,1022.23
2019-04-18T08:43:08.868Z,1022.26
2019-04-18T08:44:09.078Z,1022.19
2019-04-18T08:45:09.023Z,1022.21
2019-04-18T08:46:08.295Z,1022.23
2019-04-18T08:47:13.036Z,1022.29
2019-04-18T08:48:08.768Z,1022.24
2019-04-18T08:49:09.229Z,1022.22
2019-04-18T08:50:08.872Z,1022.27
2019-04-18T08:51:08.217Z,1022.22
2019-04-18T08:52:08.352Z,1022.32
2019-04-18T08:53:08.920Z,1022.28
2019-04-18T08:54:09.347Z,1022.27
2019-04-18T08:55:08.338Z,1022.25
2019-04-18T08:56:08.137Z,1022.21
2019-04-18T08:57:10.316Z,1022.31
2019-04-18T08:58:08.459Z,1022.18
2019-04-18T08:59:08.094Z,1022.26
2019-04-18T09:00:08.094Z,1022.24
2019-04-18T09:01:08.450Z,1022.27
2019-04-18T09:02:08.549Z,1022.28
2019-04-18T09:03:23.193Z,1022.29
2019-04-18T09:04:08.021Z,1022.44
2019-04-18T09:05:18.340Z,1022.41
2019-04-18T09:06:08.706Z,1022.40
2019-04-18T09:07:08.625Z,1022.33
2019-04-18T09:08:12.695Z,1022.27
2019-04-18T09:09:08.128Z,1022.36
2019-04-18T09:10:09.685Z,1022.29
2019-04-18T09:11:08.104Z,1022.33
2019-04-18T09:12:09.315Z,1022.34
2019-04-18T09:13:09.386Z,1022.32
2019-04-18T09:14:09.596Z,1022.33
2019-04-18T09:15:08.956Z,1022.31
2019-04-18T09:16:08.123Z,1022.45
2019-04-18T09:17:08.044Z,1022.31
2019-04-18T09:18:12.916Z,1022.45
2019-04-18T09:19:09.531Z,1022.28
2019-04-18T09:20:12.430Z,1022.30
2019-04-18T09:21:17.784Z,1022.25
2019-04-18T09:22:07.788Z,1022.35
2019-04-18T09:23:09.396Z,1022.37
2019-04-18T09:24:08.251Z,1022.41
2019-04-18T09:25:09.406Z,1022.53
2019-04-18T09:26:07.737Z,1022.33
2019-04-18T09:27:08.770Z,1022.49
2019-04-18T09:28:07.713Z,1022.51
2019-04-18T09:29:08.355Z,1022.46
2019-04-18T09:30:08.450Z,1022.43
2019-04-18T09:31:07.680Z,1022.28
2019-04-18T09:32:08.524Z,1022.52
2019-04-18T09:33:08.044Z,1022.53
2019-04-18T09:34:07.656Z,1022.39
2019-04-18T09:35:12.530Z,1022.36
2019-04-18T09:36:07.718Z,1022.30
2019-04-18T09:37:07.626Z,1022.28
2019-04-18T09:38:07.961Z,1022.45
2019-04-18T09:39:10.819Z,1022.35
2019-04-18T09:40:07.602Z,1022.47
2019-04-18T09:41:07.582Z,1022.34
2019-04-18T09:42:08.463Z,1022.51
2019-04-18T09:43:20.205Z,1022.41
2019-04-18T09:44:11.704Z,1022.43
2019-04-18T09:45:09.433Z,1022.45
2019-04-18T09:46:09.131Z,1022.46
2019-04-18T09:47:08.252Z,1022.41
2019-04-18T09:48:07.519Z,1022.49
2019-04-18T09:49:07.929Z,1022.41
2019-04-18T09:50:08.463Z,1022.40
2019-04-18T09:51:07.669Z,1022.39
2019-04-18T09:52:07.490Z,1022.42
2019-04-18T09:53:07.484Z,1022.46
2019-04-18T09:54:07.477Z,1022.38
2019-04-18T09:55:09.945Z,1022.48
2019-04-18T09:56:07.468Z,1022.50
2019-04-18T09:57:07.475Z,1022.42
2019-04-18T09:58:07.938Z,1022.47
2019-04-18T09:59:11.427Z,1022.40
2019-04-18T10:00:10.909Z,1022.27
2019-04-18T10:01:07.925Z,1022.41
2019-04-18T10:02:07.431Z,1022.36
2019-04-18T10:03:07.663Z,1022.43
2019-04-18T10:04:10.730Z,1022.46
2019-04-18T10:05:21.884Z,1022.39
2019-04-18T10:06:07.497Z,1022.32
2019-04-18T10:07:07.408Z,1022.42
2019-04-18T10:08:07.411Z,1022.27
2019-04-18T10:09:07.818Z,1022.35
2019-04-18T10:10:07.396Z,1022.30
2019-04-18T10:11:09.660Z,1022.39
2019-04-18T10:12:09.132Z,1022.10
2019-04-18T10:13:07.525Z,1022.30
2019-04-18T10:14:07.383Z,1022.30
2019-04-18T10:15:15.297Z,1022.25
2019-04-18T10:16:08.055Z,1022.26
2019-04-18T10:17:13.043Z,1022.23
2019-04-18T10:18:07.960Z,1022.19
2019-04-18T10:19:07.412Z,1022.13
2019-04-18T10:20:07.356Z,1022.22
2019-04-18T10:21:08.011Z,1022.26
2019-04-18T10:22:07.687Z,1022.10
2019-04-18T10:23:07.352Z,1022.24
2019-04-18T10:24:07.341Z,1022.18
2019-04-18T10:25:07.372Z,1022.13
2019-04-18T10:26:07.469Z,1022.06
2019-04-18T10:27:07.354Z,1022.14
2019-04-18T10:28:07.474Z,1022.12
2019-04-18T10:29:07.327Z,1022.09
2019-04-18T10:30:07.322Z,1022.08
2019-04-18T10:31:07.350Z,1022.15
2019-04-18T10:32:07.314Z,1022.12
2019-04-18T10:33:07.311Z,1022.11
2019-04-18T10:34:11.641Z,1022.08
2019-04-18T10:35:07.941Z,1022.02
2019-04-18T10:36:07.304Z,1021.99
2019-04-18T10:37:07.673Z,1022.07
2019-04-18T10:38:09.776Z,1022.00
2019-04-18T10:39:07.295Z,1022.05
2019-04-18T10:40:07.416Z,1022.09
2019-04-18T10:41:07.301Z,1022.08
2019-04-18T10:42:07.352Z,1022.08
2019-04-18T10:43:07.934Z,1022.01
2019-04-18T10:44:07.273Z,1022.05
2019-04-18T10:45:07.308Z,1021.95
2019-04-18T10:46:10.049Z,1021.98
2019-04-18T10:47:07.263Z,1021.96
2019-04-18T10:48:07.265Z,1021.96
2019-04-18T10:49:07.718Z,1021.90
2019-04-18T10:50:07.254Z,1022.11
2019-04-18T10:51:07.725Z,1022.01
2019-04-18T10:52:07.242Z,1022.12
2019-04-18T10:53:07.242Z,1022.01
2019-04-18T10:54:07.260Z,1022.03
2019-04-18T10:55:07.581Z,1022.01
2019-04-18T10:56:07.702Z,1022.05
2019-04-18T10:57:07.220Z,1021.94
2019-04-18T10:58:07.311Z,1021.96
2019-04-18T10:59:07.223Z,1021.90
2019-04-18T11:00:07.445Z,1021.90
2019-04-18T11:01:07.203Z,1021.89
2019-04-18T11:02:07.250Z,1021.87
2019-04-18T11:03:07.814Z,1021.95
2019-04-18T11:04:18.981Z,1021.99
2019-04-18T11:05:07.188Z,1021.97
2019-04-18T11:06:19.031Z,1021.92
2019-04-18T11:07:07.307Z,1021.95
2019-04-18T11:08:07.584Z,1022.06
2019-04-18T11:09:07.182Z,1021.96
2019-04-18T11:10:07.171Z,1022.12
2019-04-18T11:11:07.197Z,1022.11
2019-04-18T11:12:07.164Z,1022.00
2019-04-18T11:13:07.262Z,1022.06
2019-04-18T11:14:07.334Z,1022.03
2019-04-18T11:15:07.170Z,1022.15
2019-04-18T11:16:07.151Z,1022.26
2019-04-18T11:17:07.145Z,1022.25
2019-04-18T11:18:07.427Z,1022.23
2019-04-18T11:19:07.137Z,1022.22
2019-04-18T11:20:07.135Z,1022.23
2019-04-18T11:21:07.890Z,1022.30
2019-04-18T11:22:07.125Z,1022.29
2019-04-18T11:23:07.622Z,1022.33
2019-04-18T11:24:07.119Z,1022.27
2019-04-18T11:25:07.732Z,1022.26
2019-04-18T11:26:07.330Z,1022.28
2019-04-18T11:27:07.607Z,1022.35
2019-04-18T11:28:07.387Z,1022.33
2019-04-18T11:29:07.448Z,1022.29
2019-04-18T11:30:07.134Z,1022.31
2019-04-18T11:31:07.466Z,1022.27
2019-04-18T11:32:07.122Z,1022.17
2019-04-18T11:33:07.086Z,1022.21
2019-04-18T11:34:07.271Z,1022.24
2019-04-18T11:35:07.074Z,1022.39
2019-04-18T11:36:07.714Z,1022.33
2019-04-18T11:37:07.065Z,1022.30
2019-04-18T11:38:07.067Z,1022.30
2019-04-18T11:39:07.239Z,1022.30
2019-04-18T11:40:07.050Z,1022.13
2019-04-18T11:41:07.050Z,1022.18
2019-04-18T11:42:07.038Z,1022.32
2019-04-18T11:43:08.042Z,1022.37
2019-04-18T11:44:07.037Z,1022.26
2019-04-18T11:45:07.029Z,1022.14
2019-04-18T11:46:07.537Z,1022.27
2019-04-18T11:47:07.118Z,1022.14
2019-04-18T11:48:07.012Z,1021.66
2019-04-18T11:49:07.001Z,1021.51
2019-04-18T11:50:06.993Z,1021.43
2019-04-18T11:51:06.985Z,1021.42
2019-04-18T11:52:06.983Z,1021.44
2019-04-18T11:53:06.990Z,1021.36
2019-04-18T11:54:06.967Z,1021.36
2019-04-18T11:55:06.956Z,1021.27
2019-04-18T11:56:11.900Z,1021.33
2019-04-18T11:57:06.943Z,1021.25
2019-04-18T11:58:06.962Z,1021.23
2019-04-18T11:59:06.929Z,1021.28
2019-04-18T12:00:06.929Z,1021.26
2019-04-18T12:01:17.152Z,1021.28
2019-04-18T12:02:08.881Z,1021.35
2019-04-18T12:03:07.384Z,1021.28
2019-04-18T12:04:06.897Z,1021.21
2019-04-18T12:05:06.888Z,1021.20
2019-04-18T12:06:06.926Z,1021.15
2019-04-18T12:07:07.641Z,1021.12
2019-04-18T12:08:06.890Z,1021.12
2019-04-18T12:09:06.860Z,1021.18
2019-04-18T12:10:06.829Z,1021.18